KBLH/BLH METAR and TAF weather

Enter ICAO airport designator
Station Type Date Time Source
KBLH METAR 2018/01/19 16:52 UTC NOAA

KBLH 191652Z AUTO 00000KT 10SM CLR 13/02 A2998 RMK AO2 SLP150 T01280017


Station Type Date Time Source
KBLH Decoded METAR 2018/01/19 16:52 UTC NOAA

BLYTHE AIRPORT, CA, United States (KBLH) 33-37N 114-43W 119M
Jan 19, 2018 - 11:52 AM EST / 2018.01.19 1652 UTC
Wind: Calm:0
Visibility: 10 mile(s):0
Sky conditions: clear
Temperature: 55.0 F (12.8 C)
Dew Point: 35.1 F (1.7 C)
Relative Humidity: 46%
Pressure (altimeter): 29.98 in. Hg (1015 hPa)
ob: KBLH 191652Z AUTO 00000KT 10SM CLR 13/02 A2998 RMK AO2 SLP150 T01280017
cycle: 17

Station Type Date Time Source
KBLH TAF 2018/01/19 18:24 UTC NOAA

TAF KBLH 191723Z 1918/2018 18008KT P6SM FEW250
FM192300 21012KT P6SM FEW250
FM200500 25014G25KT P6SM FEW070 BKN250
FM201000 27010KT P6SM FEW070 BKN250


Example: see airport list